createdAt,value
2024-05-09T00:02:34.866Z,102108.98
2024-05-09T00:07:41.729Z,102108.47
2024-05-09T00:12:48.423Z,102108.88
2024-05-09T00:17:55.171Z,102114.14
2024-05-09T00:23:02.076Z,102117.45
2024-05-09T00:28:09.238Z,102118.21
2024-05-09T00:33:16.114Z,102113.72
2024-05-09T00:38:22.997Z,102108.84
2024-05-09T00:43:29.627Z,102100.36
2024-05-09T00:48:37.214Z,102100.83
2024-05-09T00:53:44.329Z,102101.48
2024-05-09T00:58:52.169Z,102100.06
2024-05-09T01:03:59.831Z,102092.73
2024-05-09T01:09:07.076Z,102092.45
2024-05-09T01:14:13.827Z,102099.33
2024-05-09T01:19:24.608Z,102099.55
2024-05-09T01:24:31.413Z,102101.47
2024-05-09T01:29:39.841Z,102098.84
2024-05-09T01:34:46.603Z,102102.70
2024-05-09T01:39:53.616Z,102101.42
2024-05-09T01:45:00.454Z,102103.02
2024-05-09T01:50:10.773Z,102104.13
2024-05-09T01:55:18.096Z,102109.83
2024-05-09T02:00:36.861Z,102108.05
2024-05-09T02:05:49.602Z,102104.33
2024-05-09T02:10:57.756Z,102105.08
2024-05-09T02:16:05.043Z,102104.34
2024-05-09T02:21:12.628Z,102099.20
2024-05-09T02:26:19.501Z,102094.95
2024-05-09T02:31:26.627Z,102086.85
2024-05-09T02:36:33.363Z,102094.77
2024-05-09T02:41:40.176Z,102099.77
2024-05-09T02:46:47.026Z,102096.73
2024-05-09T02:51:53.725Z,102096.36
2024-05-09T02:57:00.294Z,102097.69
2024-05-09T03:02:07.496Z,102100.72
2024-05-09T03:07:14.818Z,102097.20
2024-05-09T03:12:21.513Z,102093.59
2024-05-09T03:17:28.611Z,102087.73
2024-05-09T03:22:35.726Z,102084.20
2024-05-09T03:27:42.680Z,102080.09
2024-05-09T03:32:49.637Z,102075.71
2024-05-09T03:37:56.421Z,102076.65
2024-05-09T03:43:03.258Z,102079.36
2024-05-09T03:48:11.282Z,102076.40
2024-05-09T03:53:18.420Z,102079.88
2024-05-09T03:58:27.562Z,102078.60
2024-05-09T04:03:35.045Z,102080.52
2024-05-09T04:08:42.117Z,102079.02
2024-05-09T04:13:49.344Z,102081.75
2024-05-09T04:18:56.237Z,102084.02
2024-05-09T04:24:02.953Z,102084.23
2024-05-09T04:29:10.195Z,102080.99
2024-05-09T04:34:17.109Z,102085.55
2024-05-09T04:39:24.124Z,102085.38
2024-05-09T04:44:30.755Z,102081.95
2024-05-09T04:49:37.827Z,102084.14
2024-05-09T04:54:45.406Z,102086.89
2024-05-09T04:59:52.529Z,102087.27
2024-05-09T05:04:59.414Z,102090.60
2024-05-09T05:10:09.359Z,102089.90
2024-05-09T05:15:19.908Z,102091.84
2024-05-09T05:20:32.884Z,102088.67
2024-05-09T05:25:44.621Z,102090.45
2024-05-09T05:30:54.125Z,102095.14
2024-05-09T05:36:01.739Z,102097.06
2024-05-09T05:41:09.796Z,102096.89
2024-05-09T05:46:17.783Z,102095.90
2024-05-09T05:51:27.986Z,102094.61
2024-05-09T05:56:35.269Z,102095.63
2024-05-09T06:01:42.750Z,102096.10
2024-05-09T06:06:51.420Z,102100.91
2024-05-09T06:12:14.507Z,102100.96
2024-05-09T06:17:21.894Z,102101.55
2024-05-09T06:22:28.760Z,102094.97
2024-05-09T06:27:35.895Z,102093.34
2024-05-09T06:32:45.502Z,102091.80
2024-05-09T06:37:52.337Z,102089.20
2024-05-09T06:42:59.393Z,102082.10
2024-05-09T06:48:07.460Z,102069.58
2024-05-09T06:53:16.572Z,102074.89
2024-05-09T06:58:23.429Z,102076.11
2024-05-09T07:03:31.416Z,102070.01
2024-05-09T07:08:38.306Z,102061.02
2024-05-09T07:13:45.374Z,102054.40
2024-05-09T07:18:55.055Z,102054.48
2024-05-09T07:24:01.992Z,102056.45
2024-05-09T07:29:07.732Z,102053.82
2024-05-09T07:34:16.594Z,102050.22
2024-05-09T07:39:24.700Z,102055.60
2024-05-09T07:44:31.519Z,102058.79
2024-05-09T07:54:47.891Z,102052.30
2024-05-09T07:59:57.170Z,102046.91
2024-05-09T08:05:05.921Z,102044.98
2024-05-09T08:10:15.313Z,102039.25
2024-05-09T08:15:25.344Z,102043.30
2024-05-09T08:20:35.202Z,102052.61
2024-05-09T08:25:43.059Z,102050.51
2024-05-09T08:30:48.639Z,102056.33
2024-05-09T08:35:55.585Z,102062.17
2024-05-09T08:41:04.111Z,102065.50
2024-05-09T08:46:14.577Z,102060.59
2024-05-09T08:51:21.576Z,102061.48
2024-05-09T08:56:35.250Z,102056.41
2024-05-09T09:01:53.852Z,102051.22
2024-05-09T09:12:12.449Z,102047.05
2024-05-09T09:17:20.059Z,102041.48
2024-05-09T09:22:26.852Z,102041.72
2024-05-09T09:27:35.965Z,102041.13
2024-05-09T09:32:42.866Z,102049.11
2024-05-09T09:37:51.810Z,102052.88
2024-05-09T09:43:01.737Z,102051.76
2024-05-09T09:48:15.875Z,102048.39
2024-05-09T09:53:26.898Z,102042.58
2024-05-09T09:58:35.924Z,102039.64
2024-05-09T10:03:43.043Z,102031.08
2024-05-09T10:08:51.578Z,102030.80
2024-05-09T10:13:59.726Z,102025.55
2024-05-09T10:19:06.660Z,102021.83
2024-05-09T10:24:13.648Z,102017.85
2024-05-09T10:29:23.512Z,102015.73
2024-05-09T10:34:36.797Z,102009.59
2024-05-09T10:39:43.723Z,102006.14
2024-05-09T10:44:50.423Z,102005.55
2024-05-09T10:49:58.320Z,101999.16
2024-05-09T10:55:06.186Z,102000.17
2024-05-09T11:00:23.309Z,101997.11
2024-05-09T11:05:39.068Z,101992.45
2024-05-09T11:10:47.256Z,101986.98
2024-05-09T11:15:55.009Z,101975.64
2024-05-09T11:21:02.069Z,101973.71
2024-05-09T11:26:10.822Z,101968.02
2024-05-09T11:31:18.410Z,101961.39
2024-05-09T11:36:25.265Z,101956.21
2024-05-09T11:41:35.705Z,101951.34
2024-05-09T11:46:47.323Z,101949.10
2024-05-09T11:51:54.338Z,101944.26
2024-05-09T11:57:01.262Z,101932.30
2024-05-09T12:02:08.564Z,101931.13
2024-05-09T12:07:16.050Z,101926.98
2024-05-09T12:12:22.965Z,101922.86
2024-05-09T12:17:29.898Z,101917.80
2024-05-09T12:22:37.078Z,101916.59
2024-05-09T12:27:44.614Z,101910.80
2024-05-09T12:32:54.141Z,101907.06
2024-05-09T12:38:00.963Z,101897.27
2024-05-09T12:43:09.830Z,101894.05
2024-05-09T12:48:17.863Z,101891.37
2024-05-09T12:53:25.528Z,101886.48
2024-05-09T12:58:32.307Z,101883.92
2024-05-09T13:03:39.411Z,101875.55
2024-05-09T13:08:47.939Z,101865.52
2024-05-09T13:13:54.844Z,101861.45
2024-05-09T13:19:01.977Z,101851.11
2024-05-09T13:24:20.589Z,101843.94
2024-05-09T13:29:30.958Z,101838.62
2024-05-09T13:34:39.381Z,101829.70
2024-05-09T13:39:48.787Z,101824.61
2024-05-09T13:44:56.167Z,101824.45
2024-05-09T13:50:05.176Z,101816.18
2024-05-09T13:55:12.544Z,101811.86
2024-05-09T14:00:48.065Z,101808.22
2024-05-09T14:06:00.334Z,101810.02
2024-05-09T14:11:07.683Z,101802.27
2024-05-09T14:16:18.980Z,101796.03
2024-05-09T14:21:29.441Z,101791.89
2024-05-09T14:26:36.689Z,101787.27
2024-05-09T14:31:43.347Z,101779.73
2024-05-09T14:36:50.218Z,101771.48
2024-05-09T14:41:57.231Z,101767.78
2024-05-09T14:47:04.162Z,101762.25
2024-05-09T14:52:13.448Z,101754.49
2024-05-09T14:57:20.732Z,101746.77
2024-05-09T15:02:27.495Z,101742.92
2024-05-09T15:07:34.518Z,101735.48
2024-05-09T15:12:41.284Z,101726.73
2024-05-09T15:17:48.414Z,101721.52
2024-05-09T15:22:57.053Z,101715.21
2024-05-09T15:28:04.748Z,101713.77
2024-05-09T15:33:12.953Z,101710.88
2024-05-09T15:38:21.298Z,101705.98
2024-05-09T15:43:28.647Z,101699.67
2024-05-09T15:48:37.794Z,101696.61
2024-05-09T15:53:45.383Z,101693.95
2024-05-09T15:58:52.195Z,101686.23
2024-05-09T16:03:59.235Z,101686.44
2024-05-09T16:09:07.026Z,101678.83
2024-05-09T16:14:13.689Z,101674.14
2024-05-09T16:19:20.333Z,101675.58
2024-05-09T16:24:29.749Z,101678.32
2024-05-09T16:29:36.554Z,101675.44
2024-05-09T16:34:43.185Z,101675.29
2024-05-09T16:39:50.088Z,101674.11
2024-05-09T16:44:56.980Z,101668.64
2024-05-09T16:50:05.106Z,101666.02
2024-05-09T16:55:12.287Z,101668.06
2024-05-09T17:00:30.882Z,101666.61
2024-05-09T17:05:47.468Z,101661.99
2024-05-09T17:10:55.930Z,101660.97
2024-05-09T17:16:04.217Z,101658.30
2024-05-09T17:21:11.491Z,101658.17
2024-05-09T17:26:18.559Z,101653.00
2024-05-09T17:31:26.401Z,101649.63
2024-05-09T17:36:33.504Z,101645.98
2024-05-09T17:41:40.578Z,101644.46
2024-05-09T17:46:46.385Z,101644.00
2024-05-09T17:51:56.849Z,101646.02
2024-05-09T17:57:05.597Z,101639.52
2024-05-09T18:02:12.849Z,101638.43
2024-05-09T18:07:19.915Z,101637.16
2024-05-09T18:12:27.676Z,101636.89
2024-05-09T18:17:35.418Z,101637.53
2024-05-09T18:22:42.157Z,101640.08
2024-05-09T18:27:49.204Z,101636.25
2024-05-09T18:32:56.035Z,101638.36
2024-05-09T18:38:03.012Z,101639.73
2024-05-09T18:43:11.420Z,101640.89
2024-05-09T18:48:18.841Z,101642.30
2024-05-09T18:53:25.956Z,101642.95
2024-05-09T18:58:34.805Z,101646.96
2024-05-09T19:03:42.282Z,101644.94
2024-05-09T19:08:49.423Z,101645.30
2024-05-09T19:13:58.587Z,101644.42
2024-05-09T19:19:06.357Z,101647.26
2024-05-09T19:24:13.508Z,101652.51
2024-05-09T19:29:23.048Z,101656.13
2024-05-09T19:34:30.036Z,101660.23
2024-05-09T19:39:36.937Z,101657.30
2024-05-09T19:44:44.484Z,101659.59
2024-05-09T19:49:51.305Z,101661.73
2024-05-09T19:54:58.281Z,101658.96
2024-05-09T20:00:06.061Z,101658.11
2024-05-09T20:05:16.365Z,101657.37
2024-05-09T20:10:31.461Z,101660.88
2024-05-09T20:15:41.240Z,101657.46
2024-05-09T20:20:52.448Z,101655.13
2024-05-09T20:26:21.604Z,101657.92
2024-05-09T20:31:34.399Z,101654.00
2024-05-09T20:36:49.012Z,101655.96
2024-05-09T20:41:56.228Z,101650.09
2024-05-09T20:47:03.196Z,101647.17
2024-05-09T20:52:10.863Z,101643.92
2024-05-09T20:57:20.036Z,101649.32
2024-05-09T21:02:26.955Z,101648.02
2024-05-09T21:07:39.120Z,101648.16
2024-05-09T21:12:54.224Z,101645.76
2024-05-09T21:18:01.407Z,101664.88
2024-05-09T21:23:11.401Z,101663.96
2024-05-09T21:28:18.861Z,101665.63
2024-05-09T21:33:26.014Z,101661.52
2024-05-09T21:38:32.930Z,101656.73
2024-05-09T21:43:40.362Z,101658.83
2024-05-09T21:48:47.162Z,101657.59
2024-05-09T21:53:53.756Z,101660.08
2024-05-09T21:59:00.367Z,101658.50
2024-05-09T22:04:07.234Z,101653.36
2024-05-09T22:09:14.309Z,101654.23
2024-05-09T22:14:21.618Z,101651.31
2024-05-09T22:19:29.716Z,101650.88
2024-05-09T22:24:36.727Z,101649.46
2024-05-09T22:29:43.414Z,101647.31
2024-05-09T22:34:50.165Z,101647.17
2024-05-09T22:39:56.925Z,101643.13
2024-05-09T22:45:03.474Z,101641.91
2024-05-09T22:50:16.010Z,101645.46
2024-05-09T22:55:28.931Z,101644.11
2024-05-09T23:00:35.975Z,101643.36
2024-05-09T23:05:42.852Z,101641.23
2024-05-09T23:10:49.734Z,101635.94
2024-05-09T23:15:56.492Z,101634.56
2024-05-09T23:21:03.783Z,101630.46
2024-05-09T23:26:10.338Z,101624.29
2024-05-09T23:31:16.947Z,101621.64
2024-05-09T23:36:23.650Z,101621.63
2024-05-09T23:41:30.211Z,101616.23
2024-05-09T23:46:37.426Z,101611.83
2024-05-09T23:51:44.345Z,101610.23
2024-05-09T23:56:51.938Z,101607.58
